Terminal Aerodrome Forecast
Issued by NWS Northern Indiana

Home | Current Version | Previous Version | Graphics & Text | Print | Product List | Glossary On
Versions: 1 2 3 4 5 6 7 8 9 10 11 12 13
637
FTUS43 KIWX 282339
TAFFWA
TAF
KFWA 282339Z 2900/2924 02006KT P6SM -SHRA SCT015 OVC035
      TEMPO 2900/2904 3SM SHRA BR OVC015
     FM290400 04006KT 3SM BR VCSH OVC010
     FM291600 06010KT P6SM SCT015 BKN035
     FM291900 05011KT P6SM -SHRA OVC015=

USA.gov is the U.S. government's official web portal to all federal, state and local government web resources and services.